Aviation Digital Data Service (ADDS)

Output produced by METARs form (2057 UTC 04 September 2015)
found at http://aviationweather.gov/adds/metars/
 
KGON 041931Z 0420/0518 06014KT P6SM SCT025 BKN070 
     FM042300 06010KT P6SM SCT050 
     FM050800 04007KT P6SM FEW050 
     FM051600 14009KT P6SM SKC